createdAt,value
2023-06-14T00:00:51.599Z,5.40
2023-06-14T00:05:56.649Z,4.97
2023-06-14T00:11:01.087Z,4.97
2023-06-14T00:16:05.585Z,5.28
2023-06-14T00:21:08.631Z,5.07
2023-06-14T00:26:11.632Z,5.03
2023-06-14T00:31:16.971Z,5.50
2023-06-14T00:36:19.545Z,4.65
2023-06-14T00:41:22.222Z,4.70
2023-06-14T00:46:24.946Z,5.22
2023-06-14T00:51:28.753Z,5.15
2023-06-14T00:56:31.414Z,5.05
2023-06-14T01:01:34.730Z,5.35
2023-06-14T01:06:52.628Z,5.90
2023-06-14T01:12:19.235Z,5.25
2023-06-14T01:17:42.922Z,4.68
2023-06-14T01:22:53.814Z,5.13
2023-06-14T01:28:00.804Z,4.68
2023-06-14T01:33:03.870Z,5.10
2023-06-14T01:38:09.465Z,4.90
2023-06-14T01:43:15.543Z,5.15
2023-06-14T01:48:18.424Z,4.65
2023-06-14T01:53:21.915Z,4.78
2023-06-14T01:58:25.838Z,4.57
2023-06-14T02:03:28.801Z,4.90
2023-06-14T02:08:31.460Z,4.30
2023-06-14T02:13:36.924Z,5.15
2023-06-14T02:18:40.688Z,4.30
2023-06-14T02:23:43.627Z,4.80
2023-06-14T02:28:46.297Z,4.32
2023-06-14T02:33:49.197Z,4.75
2023-06-14T02:38:51.743Z,4.78
2023-06-14T02:43:54.910Z,5.10
2023-06-14T02:48:58.214Z,4.53
2023-06-14T02:54:01.146Z,4.30
2023-06-14T02:59:04.060Z,4.63
2023-06-14T03:04:09.210Z,4.70
2023-06-14T03:09:14.541Z,4.70
2023-06-14T03:14:19.270Z,4.60
2023-06-14T03:19:22.330Z,4.70
2023-06-14T03:24:28.607Z,4.65
2023-06-14T03:29:33.544Z,5.05
2023-06-14T03:34:36.782Z,4.50
2023-06-14T03:39:47.323Z,4.80
2023-06-14T03:44:53.559Z,5.07
2023-06-14T03:49:58.749Z,4.78
2023-06-14T04:00:10.961Z,4.45
2023-06-14T04:05:18.019Z,4.63
2023-06-14T04:10:24.841Z,4.40
2023-06-14T04:15:29.421Z,5.75
2023-06-14T04:20:32.946Z,4.78
2023-06-14T04:25:36.070Z,4.70
2023-06-14T04:30:41.796Z,5.20
2023-06-14T04:35:48.706Z,5.00
2023-06-14T04:40:53.945Z,4.60
2023-06-14T04:45:58.426Z,5.03
2023-06-14T04:51:05.253Z,4.97
2023-06-14T04:56:08.606Z,5.60
2023-06-14T05:01:12.315Z,4.95
2023-06-14T05:06:16.562Z,4.85
2023-06-14T05:11:19.257Z,4.32
2023-06-14T05:16:24.190Z,5.20
2023-06-14T05:21:27.014Z,4.78
2023-06-14T05:26:29.856Z,4.97
2023-06-14T05:31:33.910Z,4.95
2023-06-14T05:36:38.099Z,5.10
2023-06-14T05:41:40.660Z,5.03
2023-06-14T05:46:44.783Z,5.90
2023-06-14T05:51:47.492Z,4.90
2023-06-14T05:56:50.380Z,4.70
2023-06-14T06:01:55.524Z,4.78
2023-06-14T06:06:58.493Z,4.95
2023-06-14T06:12:02.489Z,4.60
2023-06-14T06:22:09.927Z,5.53
2023-06-14T06:27:13.742Z,5.82
2023-06-14T06:32:17.673Z,5.07
2023-06-14T06:37:21.120Z,5.15
2023-06-14T06:42:24.081Z,4.97
2023-06-14T06:47:27.911Z,4.05
2023-06-14T06:52:30.687Z,4.63
2023-06-14T06:57:35.503Z,4.45
2023-06-14T07:02:38.636Z,3.90
2023-06-14T07:07:42.620Z,5.57
2023-06-14T07:12:45.963Z,4.43
2023-06-14T07:17:48.791Z,3.75
2023-06-14T07:22:52.510Z,3.63
2023-06-14T07:27:55.163Z,3.72
2023-06-14T07:33:16.733Z,3.63
2023-06-14T07:38:20.406Z,3.88
2023-06-14T07:43:23.038Z,4.00
2023-06-14T07:48:29.484Z,3.83
2023-06-14T07:53:33.110Z,3.60
2023-06-14T07:58:36.602Z,3.22
2023-06-14T08:08:42.164Z,3.45
2023-06-14T08:13:44.855Z,3.23
2023-06-14T08:18:47.629Z,3.43
2023-06-14T08:23:50.323Z,3.17
2023-06-14T08:28:53.040Z,3.10
2023-06-14T08:33:55.866Z,3.20
2023-06-14T08:39:00.946Z,4.20
2023-06-14T08:44:03.887Z,3.55
2023-06-14T08:49:07.703Z,3.67
2023-06-14T08:54:11.712Z,3.05
2023-06-14T08:59:16.283Z,3.17
2023-06-14T09:04:20.562Z,3.15
2023-06-14T09:09:24.127Z,2.80
2023-06-14T09:14:26.787Z,3.63
2023-06-14T09:19:30.401Z,2.92
2023-06-14T09:24:33.137Z,2.80
2023-06-14T09:34:38.951Z,3.45
2023-06-14T09:44:57.478Z,3.28
2023-06-14T09:50:01.418Z,3.00
2023-06-14T09:55:11.452Z,3.20
2023-06-14T10:00:16.789Z,3.30
2023-06-14T10:05:21.819Z,2.80
2023-06-14T10:10:24.682Z,3.03
2023-06-14T10:15:36.464Z,3.00
2023-06-14T10:20:46.278Z,3.05
2023-06-14T10:26:01.026Z,2.90
2023-06-14T10:31:09.619Z,2.70
2023-06-14T10:36:24.586Z,2.75
2023-06-14T10:41:30.690Z,3.00
2023-06-14T10:46:33.352Z,3.00
2023-06-14T10:51:47.542Z,3.38
2023-06-14T10:56:54.269Z,2.60
2023-06-14T11:02:46.791Z,2.97
2023-06-14T11:08:27.968Z,2.53
2023-06-14T11:13:32.240Z,2.97
2023-06-14T11:18:35.381Z,2.90
2023-06-14T11:23:38.413Z,2.92
2023-06-14T11:34:04.973Z,2.90
2023-06-14T11:39:08.255Z,2.80
2023-06-14T11:44:11.552Z,3.60
2023-06-14T11:49:14.336Z,3.30
2023-06-14T11:54:17.148Z,3.25
2023-06-14T11:59:19.742Z,2.78
2023-06-14T12:04:28.417Z,2.97
2023-06-14T12:09:31.042Z,2.88
2023-06-14T12:14:33.795Z,2.92
2023-06-14T12:19:46.447Z,2.75
2023-06-14T12:24:49.462Z,2.63
2023-06-14T12:30:02.310Z,2.83
2023-06-14T12:35:05.605Z,2.70
2023-06-14T12:40:08.890Z,2.85
2023-06-14T12:45:12.774Z,2.72
2023-06-14T12:50:15.701Z,3.13
2023-06-14T12:55:19.646Z,3.08
2023-06-14T13:00:23.513Z,2.90
2023-06-14T13:05:26.435Z,2.67
2023-06-14T13:10:29.389Z,3.00
2023-06-14T13:15:32.058Z,3.22
2023-06-14T13:20:34.676Z,2.95
2023-06-14T13:25:38.575Z,3.45
2023-06-14T13:30:41.377Z,2.90
2023-06-14T13:35:44.203Z,2.83
2023-06-14T13:40:47.065Z,2.50
2023-06-14T13:45:49.981Z,3.08
2023-06-14T13:50:52.603Z,2.67
2023-06-14T13:55:55.280Z,2.38
2023-06-14T14:00:59.033Z,2.72
2023-06-14T14:06:05.595Z,2.55
2023-06-14T14:11:08.814Z,2.92
2023-06-14T14:16:12.019Z,3.22
2023-06-14T14:21:15.187Z,2.60
2023-06-14T14:26:17.913Z,2.60
2023-06-14T14:31:21.665Z,2.70
2023-06-14T14:36:24.495Z,2.50
2023-06-14T14:41:28.787Z,2.70
2023-06-14T14:46:31.866Z,2.50
2023-06-14T14:51:34.501Z,2.58
2023-06-14T14:56:39.049Z,2.60
2023-06-14T15:01:42.950Z,2.40
2023-06-14T15:06:45.909Z,2.60
2023-06-14T15:11:48.755Z,2.40
2023-06-14T15:16:51.576Z,2.70
2023-06-14T15:21:55.305Z,2.60
2023-06-14T15:26:58.263Z,2.72
2023-06-14T15:32:02.658Z,2.50
2023-06-14T15:37:06.527Z,2.30
2023-06-14T15:42:09.253Z,2.90
2023-06-14T15:47:11.939Z,2.47
2023-06-14T15:52:15.008Z,2.63
2023-06-14T15:57:17.692Z,2.65
2023-06-14T16:02:20.396Z,2.67
2023-06-14T16:07:24.176Z,2.90
2023-06-14T16:12:26.827Z,2.60
2023-06-14T16:17:29.625Z,2.72
2023-06-14T16:22:32.283Z,2.80
2023-06-14T16:27:35.234Z,2.80
2023-06-14T16:32:37.988Z,2.58
2023-06-14T16:37:40.741Z,2.80
2023-06-14T16:52:51.139Z,2.83
2023-06-14T16:57:53.927Z,2.70
2023-06-14T17:02:57.041Z,2.88
2023-06-14T17:08:00.568Z,3.50
2023-06-14T17:13:03.367Z,2.78
2023-06-14T17:18:09.470Z,2.90
2023-06-14T17:23:12.136Z,2.90
2023-06-14T17:28:14.996Z,3.00
2023-06-14T17:33:21.065Z,2.88
2023-06-14T17:38:24.191Z,2.92
2023-06-14T17:43:26.859Z,2.90
2023-06-14T17:48:34.281Z,2.58
2023-06-14T17:53:37.913Z,3.05
2023-06-14T17:58:40.931Z,3.13
2023-06-14T18:03:43.862Z,2.72
2023-06-14T18:13:54.732Z,3.30
2023-06-14T18:19:18.196Z,2.83
2023-06-14T18:24:21.353Z,3.40
2023-06-14T18:29:24.060Z,3.47
2023-06-14T18:34:27.659Z,3.13
2023-06-14T18:39:30.596Z,2.97
2023-06-14T18:44:33.267Z,2.95
2023-06-14T18:49:36.901Z,3.00
2023-06-14T18:59:42.868Z,3.00
2023-06-14T19:04:45.995Z,2.95
2023-06-14T19:09:48.898Z,3.10
2023-06-14T19:14:51.747Z,3.00
2023-06-14T19:19:55.000Z,3.37
2023-06-14T19:24:58.117Z,3.10
2023-06-14T19:30:01.020Z,3.40
2023-06-14T19:35:04.241Z,3.10
2023-06-14T19:40:07.671Z,3.17
2023-06-14T19:45:12.952Z,3.42
2023-06-14T19:50:16.123Z,3.08
2023-06-14T19:55:19.197Z,3.20
2023-06-14T20:00:22.271Z,3.33
2023-06-14T20:05:24.852Z,3.00
2023-06-14T20:10:27.825Z,3.13
2023-06-14T20:15:30.576Z,3.63
2023-06-14T20:20:33.253Z,3.60
2023-06-14T20:25:35.885Z,3.20
2023-06-14T20:30:38.888Z,2.97
2023-06-14T20:35:41.588Z,3.20
2023-06-14T20:40:44.302Z,3.20
2023-06-14T20:45:47.736Z,3.50
2023-06-14T20:50:51.013Z,3.33
2023-06-14T20:55:53.623Z,3.37
2023-06-14T21:00:56.666Z,3.22
2023-06-14T21:06:00.730Z,3.65
2023-06-14T21:16:07.542Z,3.30
2023-06-14T21:21:11.217Z,3.57
2023-06-14T21:26:14.536Z,3.80
2023-06-14T21:31:19.936Z,3.67
2023-06-14T21:36:22.719Z,3.45
2023-06-14T21:41:25.519Z,3.70
2023-06-14T21:46:32.087Z,3.63
2023-06-14T21:51:34.851Z,3.60
2023-06-14T21:56:38.064Z,3.78
2023-06-14T22:01:41.147Z,3.97
2023-06-14T22:06:46.339Z,3.70
2023-06-14T22:11:50.472Z,3.60
2023-06-14T22:21:58.716Z,3.80
2023-06-14T22:27:01.517Z,3.88
2023-06-14T22:32:05.880Z,3.88
2023-06-14T22:37:09.285Z,3.67
2023-06-14T22:42:14.811Z,3.47
2023-06-14T22:47:21.564Z,4.57
2023-06-14T22:52:27.711Z,4.25
2023-06-14T22:57:31.255Z,4.45
2023-06-14T23:02:34.068Z,4.20
2023-06-14T23:07:37.905Z,4.75
2023-06-14T23:12:42.641Z,5.30
2023-06-14T23:17:50.948Z,4.82
2023-06-14T23:22:54.995Z,5.30
2023-06-14T23:27:57.845Z,5.13
2023-06-14T23:33:04.387Z,5.22
2023-06-14T23:38:07.756Z,5.63
2023-06-14T23:43:10.501Z,4.60
2023-06-14T23:48:13.161Z,5.05
2023-06-14T23:53:15.968Z,5.05
2023-06-14T23:58:20.959Z,4.90
